Time;durP1;ratioP1;P1;durP2;ratioP2;P2;SDS_P1;SDS_P2;PMS_P1;PMS_P2;Temp;Humidity;BMP_temperature;BMP_pressure;BME280_temperature;BME280_humidity;BME280_pressure;Samples;Min_cycle;Max_cycle;Signal;HPM_P1;HPM_P2
2022/01/11 00:01:46;;;;;;;93.55;20.73;;;;;;;;;;5081066;28;20062;-77
2022/01/11 00:04:16;;;;;;;98.40;21.60;;;;;;;;;;5080662;28;20033;-77
2022/01/11 00:06:46;;;;;;;59.88;18.55;;;;;;;;;;5098866;28;20059;-76
2022/01/11 00:09:23;;;;;;;58.10;17.70;;;;;;;;;;5097112;28;20032;-77
2022/01/11 00:11:50;;;;;;;94.05;18.33;;;;;;;;;;5064425;28;20317;-77
2022/01/11 00:14:16;;;;;;;61.47;17.92;;;;;;;;;;5081094;28;20075;-78
2022/01/11 00:16:42;;;;;;;55.00;16.73;;;;;;;;;;5081862;28;20114;-79
2022/01/11 00:19:09;;;;;;;58.08;16.33;;;;;;;;;;5080374;28;20067;-78
2022/01/11 00:21:39;;;;;;;68.20;17.85;;;;;;;;;;5080947;28;20123;-76
2022/01/11 00:26:50;;;;;;;64.30;15.40;;;;;;;;;;5088315;28;20044;-79
2022/01/11 00:29:16;;;;;;;59.63;16.27;;;;;;;;;;5081894;28;20040;-77
2022/01/11 00:31:45;;;;;;;71.60;18.13;;;;;;;;;;5081519;28;20039;-76
2022/01/11 00:34:13;;;;;;;65.50;18.55;;;;;;;;;;5079564;28;20532;-76
2022/01/11 00:36:42;;;;;;;66.65;17.77;;;;;;;;;;5080591;28;20043;-76
2022/01/11 00:39:11;;;;;;;56.03;16.15;;;;;;;;;;5088997;28;20126;-77
2022/01/11 00:41:38;;;;;;;67.03;16.17;;;;;;;;;;5091215;28;20480;-76
2022/01/11 00:44:05;;;;;;;48.15;15.52;;;;;;;;;;5090773;28;20040;-79
2022/01/11 00:46:31;;;;;;;63.60;18.00;;;;;;;;;;5091221;28;20491;-76
2022/01/11 00:48:57;;;;;;;39.42;14.98;;;;;;;;;;5091050;28;20032;-78
2022/01/11 00:51:23;;;;;;;52.85;15.32;;;;;;;;;;5090782;28;20043;-77
2022/01/11 00:53:49;;;;;;;43.03;14.30;;;;;;;;;;5090692;28;20127;-77
2022/01/11 00:56:15;;;;;;;43.22;14.65;;;;;;;;;;5091191;28;20130;-79
2022/01/11 00:58:41;;;;;;;46.08;16.63;;;;;;;;;;5090823;28;20047;-76
2022/01/11 01:01:07;;;;;;;73.38;17.27;;;;;;;;;;5107962;28;20089;-78
2022/01/11 01:03:33;;;;;;;46.08;16.48;;;;;;;;;;5090833;28;20132;-76
2022/01/11 01:05:59;;;;;;;56.65;16.27;;;;;;;;;;5090705;28;20035;-77
2022/01/11 01:08:25;;;;;;;51.33;15.90;;;;;;;;;;5090629;28;20047;-77
2022/01/11 01:10:51;;;;;;;48.72;16.38;;;;;;;;;;5090817;28;20628;-77
2022/01/11 01:13:19;;;;;;;49.90;14.85;;;;;;;;;;5090382;28;20059;-77
2022/01/11 01:15:47;;;;;;;77.72;19.13;;;;;;;;;;5090515;28;20048;-77
2022/01/11 01:18:15;;;;;;;63.60;16.73;;;;;;;;;;5090579;28;20102;-77
2022/01/11 01:20:41;;;;;;;67.38;16.40;;;;;;;;;;5090625;28;20539;-78
2022/01/11 01:23:07;;;;;;;84.00;18.60;;;;;;;;;;5090457;28;20127;-77
2022/01/11 01:25:33;;;;;;;63.78;16.77;;;;;;;;;;5090320;28;20077;-77
2022/01/11 01:27:59;;;;;;;78.20;17.70;;;;;;;;;;5090424;28;20036;-79
2022/01/11 01:30:26;;;;;;;65.93;18.77;;;;;;;;;;5090304;28;20491;-78
2022/01/11 01:32:53;;;;;;;96.75;20.33;;;;;;;;;;5090392;28;20467;-77
2022/01/11 01:35:20;;;;;;;63.92;17.63;;;;;;;;;;5090294;28;20122;-77
2022/01/11 01:37:47;;;;;;;66.55;17.45;;;;;;;;;;5107503;28;20059;-76
2022/01/11 01:40:16;;;;;;;53.95;19.15;;;;;;;;;;5090283;28;20135;-77
2022/01/11 01:42:42;;;;;;;58.75;17.73;;;;;;;;;;5107507;28;20048;-77
2022/01/11 01:45:08;;;;;;;101.95;19.67;;;;;;;;;;5090212;28;20039;-77
2022/01/11 01:47:34;;;;;;;79.30;19.33;;;;;;;;;;5090416;28;20040;-77
2022/01/11 01:50:01;;;;;;;57.08;17.15;;;;;;;;;;5090093;28;20122;-76
2022/01/11 01:52:27;;;;;;;117.13;20.52;;;;;;;;;;5090339;28;20185;-77
2022/01/11 01:54:53;;;;;;;86.72;18.48;;;;;;;;;;5090078;28;20051;-77
2022/01/11 01:57:35;;;;;;;85.15;17.67;;;;;;;;;;5090088;28;20381;-77
2022/01/11 02:00:11;;;;;;;80.78;18.88;;;;;;;;;;5089964;28;20052;-77
2022/01/11 02:02:37;;;;;;;87.72;19.00;;;;;;;;;;5090034;28;20044;-79
2022/01/11 02:05:05;;;;;;;54.85;14.43;;;;;;;;;;5090041;28;20436;-77
2022/01/11 02:07:31;;;;;;;76.57;19.83;;;;;;;;;;5107039;28;20051;-77
2022/01/11 02:09:57;;;;;;;63.45;17.15;;;;;;;;;;5090266;28;20383;-77
2022/01/11 02:12:24;;;;;;;68.75;18.08;;;;;;;;;;5090670;28;20036;-76
2022/01/11 02:14:50;;;;;;;61.75;16.73;;;;;;;;;;5093790;28;20117;-76
2022/01/11 02:17:16;;;;;;;78.68;17.65;;;;;;;;;;5093963;28;20046;-77
2022/01/11 02:19:42;;;;;;;76.80;20.00;;;;;;;;;;5093949;28;20404;-76
2022/01/11 02:22:08;;;;;;;63.90;18.13;;;;;;;;;;5093774;28;20040;-76
2022/01/11 02:24:34;;;;;;;84.30;18.40;;;;;;;;;;5093511;28;20044;-77
2022/01/11 02:27:00;;;;;;;107.55;19.27;;;;;;;;;;5091294;28;20036;-76
2022/01/11 02:29:28;;;;;;;94.25;19.23;;;;;;;;;;5082598;28;20395;-76
2022/01/11 02:31:54;;;;;;;84.20;22.60;;;;;;;;;;5080885;28;20032;-77
2022/01/11 02:34:20;;;;;;;93.32;19.23;;;;;;;;;;5082633;28;20377;-76
2022/01/11 02:36:46;;;;;;;68.72;17.35;;;;;;;;;;5065611;28;20032;-76
2022/01/11 02:39:12;;;;;;;62.05;17.65;;;;;;;;;;5080945;28;20162;-76
2022/01/11 02:41:48;;;;;;;67.40;19.33;;;;;;;;;;5082835;28;20131;-77
2022/01/11 02:44:14;;;;;;;76.03;18.30;;;;;;;;;;5065710;28;20506;-78
2022/01/11 02:46:40;;;;;;;72.38;18.10;;;;;;;;;;5081151;28;20033;-77
2022/01/11 02:49:06;;;;;;;68.95;17.63;;;;;;;;;;5081305;28;20484;-77
2022/01/11 02:51:32;;;;;;;56.28;16.15;;;;;;;;;;5065967;28;20376;-77
2022/01/11 02:54:00;;;;;;;86.50;19.75;;;;;;;;;;5081036;28;20133;-76
2022/01/11 02:56:27;;;;;;;63.90;19.52;;;;;;;;;;5081114;28;20051;-76
2022/01/11 02:58:53;;;;;;;60.00;16.60;;;;;;;;;;5083142;28;20140;-76
2022/01/11 03:01:19;;;;;;;70.50;17.92;;;;;;;;;;5082473;28;20035;-76
2022/01/11 03:03:47;;;;;;;79.32;17.65;;;;;;;;;;5064965;28;20033;-76
2022/01/11 03:06:13;;;;;;;53.03;15.73;;;;;;;;;;5080577;28;20403;-76
2022/01/11 03:08:42;;;;;;;51.42;17.42;;;;;;;;;;5082698;28;20032;-77
2022/01/11 03:11:08;;;;;;;101.63;19.50;;;;;;;;;;5082084;28;20118;-79
2022/01/11 03:13:35;;;;;;;51.97;16.95;;;;;;;;;;5079839;28;20091;-76
2022/01/11 03:16:02;;;;;;;47.28;18.10;;;;;;;;;;5081769;28;20043;-78
2022/01/11 03:18:28;;;;;;;59.03;17.45;;;;;;;;;;5081739;28;20239;-77
2022/01/11 03:20:54;;;;;;;50.08;17.25;;;;;;;;;;5082895;28;20046;-77
2022/01/11 03:23:20;;;;;;;81.47;19.33;;;;;;;;;;5063512;28;20074;-78
2022/01/11 03:25:47;;;;;;;70.70;19.23;;;;;;;;;;5079983;28;20076;-76
2022/01/11 03:28:14;;;;;;;45.55;15.50;;;;;;;;;;5082157;28;20264;-78
2022/01/11 03:30:40;;;;;;;58.80;16.67;;;;;;;;;;5080582;28;20044;-78
2022/01/11 03:33:08;;;;;;;42.95;14.80;;;;;;;;;;5080957;28;20134;-77
2022/01/11 03:35:34;;;;;;;37.95;16.23;;;;;;;;;;5082046;28;20127;-77
2022/01/11 03:38:00;;;;;;;40.53;15.38;;;;;;;;;;5063647;28;20032;-77
2022/01/11 03:40:27;;;;;;;58.80;17.85;;;;;;;;;;5080393;28;20050;-77
2022/01/11 03:42:53;;;;;;;42.67;14.32;;;;;;;;;;5081778;28;20036;-77
2022/01/11 03:45:22;;;;;;;48.40;16.27;;;;;;;;;;5080139;28;20037;-77
2022/01/11 03:47:49;;;;;;;60.92;16.73;;;;;;;;;;5077753;28;20115;-77
2022/01/11 03:50:16;;;;;;;54.28;17.02;;;;;;;;;;5071848;28;20539;-77
2022/01/11 03:52:43;;;;;;;63.78;17.90;;;;;;;;;;5071835;28;20519;-77
2022/01/11 03:55:15;;;;;;;36.03;14.90;;;;;;;;;;5071827;28;20044;-77
2022/01/11 03:57:41;;;;;;;58.70;14.93;;;;;;;;;;5072018;28;20045;-77
2022/01/11 04:00:10;;;;;;;35.75;13.68;;;;;;;;;;5071711;28;20037;-77
2022/01/11 04:02:36;;;;;;;36.70;15.13;;;;;;;;;;5071567;28;20047;-78
2022/01/11 04:05:03;;;;;;;44.58;16.13;;;;;;;;;;5071485;28;20040;-77
2022/01/11 04:07:29;;;;;;;51.13;16.08;;;;;;;;;;5054777;28;20055;-77
2022/01/11 04:09:56;;;;;;;50.10;16.35;;;;;;;;;;5071819;28;20044;-77
2022/01/11 04:12:22;;;;;;;48.42;16.08;;;;;;;;;;5071425;28;20037;-78
2022/01/11 04:14:48;;;;;;;38.95;15.10;;;;;;;;;;5071186;28;20404;-78
2022/01/11 04:17:14;;;;;;;38.60;15.57;;;;;;;;;;5054710;28;20098;-78
2022/01/11 04:19:40;;;;;;;47.28;15.63;;;;;;;;;;5071299;28;20075;-77
2022/01/11 04:22:06;;;;;;;44.85;14.70;;;;;;;;;;5054589;28;20040;-77
2022/01/11 04:24:32;;;;;;;41.83;14.65;;;;;;;;;;5054408;28;20382;-77
2022/01/11 04:26:58;;;;;;;42.30;15.60;;;;;;;;;;5071145;28;20115;-77
2022/01/11 04:29:24;;;;;;;36.15;13.95;;;;;;;;;;5071141;28;20032;-78
2022/01/11 04:31:50;;;;;;;41.17;14.63;;;;;;;;;;5071025;28;20037;-79
2022/01/11 04:34:16;;;;;;;39.97;13.93;;;;;;;;;;5071218;28;20531;-78
2022/01/11 04:36:43;;;;;;;37.88;14.70;;;;;;;;;;5070697;28;20190;-79
2022/01/11 04:39:11;;;;;;;45.55;14.38;;;;;;;;;;5070922;28;20047;-79
2022/01/11 04:41:37;;;;;;;50.30;14.45;;;;;;;;;;5054409;28;20055;-78
2022/01/11 04:44:03;;;;;;;35.80;15.85;;;;;;;;;;5054201;28;20049;-78
2022/01/11 04:46:30;;;;;;;38.97;15.63;;;;;;;;;;5071132;28;20525;-79
2022/01/11 04:48:56;;;;;;;38.13;14.45;;;;;;;;;;5054298;28;20052;-79
2022/01/11 04:51:24;;;;;;;39.03;13.48;;;;;;;;;;5054354;28;20068;-79
2022/01/11 04:53:50;;;;;;;39.50;14.85;;;;;;;;;;5070599;28;20105;-77
2022/01/11 04:56:16;;;;;;;46.00;16.10;;;;;;;;;;5070951;28;20049;-78
2022/01/11 04:58:42;;;;;;;32.72;13.98;;;;;;;;;;5070670;28;20036;-78
2022/01/11 05:01:08;;;;;;;35.45;15.02;;;;;;;;;;5070629;28;20545;-79
2022/01/11 05:03:34;;;;;;;36.90;14.73;;;;;;;;;;5070509;28;20045;-78
2022/01/11 05:06:00;;;;;;;34.85;13.75;;;;;;;;;;5070731;28;20040;-78
2022/01/11 05:08:26;;;;;;;35.50;14.93;;;;;;;;;;5070503;28;20442;-79
2022/01/11 05:10:52;;;;;;;42.83;15.60;;;;;;;;;;5070678;28;20485;-79
2022/01/11 05:13:20;;;;;;;37.53;14.57;;;;;;;;;;5070119;28;20045;-79
2022/01/11 05:15:46;;;;;;;40.08;15.90;;;;;;;;;;5070600;28;20175;-79
2022/01/11 05:18:12;;;;;;;25.17;12.32;;;;;;;;;;5070413;28;20037;-79
2022/01/11 05:20:39;;;;;;;37.85;13.52;;;;;;;;;;5053948;28;20131;-78
2022/01/11 05:23:06;;;;;;;32.17;15.50;;;;;;;;;;5070620;28;20048;-78
2022/01/11 05:25:32;;;;;;;38.50;15.43;;;;;;;;;;5053574;28;20037;-78
2022/01/11 05:28:01;;;;;;;50.15;15.02;;;;;;;;;;5070100;28;20094;-79
2022/01/11 05:30:28;;;;;;;67.00;17.05;;;;;;;;;;5053605;28;20145;-78
2022/01/11 05:32:54;;;;;;;54.47;17.05;;;;;;;;;;5053669;28;20087;-78
2022/01/11 05:35:20;;;;;;;46.60;16.50;;;;;;;;;;5053836;28;20037;-79
2022/01/11 05:37:47;;;;;;;55.45;17.05;;;;;;;;;;5070059;28;20080;-79
2022/01/11 05:40:13;;;;;;;44.45;18.30;;;;;;;;;;5070191;28;20123;-78
2022/01/11 05:42:40;;;;;;;45.95;16.30;;;;;;;;;;5070370;28;20472;-78
2022/01/11 05:45:07;;;;;;;59.63;18.20;;;;;;;;;;5070280;28;20044;-79
2022/01/11 05:47:34;;;;;;;57.78;18.05;;;;;;;;;;5071069;28;20076;-79
2022/01/11 05:50:01;;;;;;;47.00;17.63;;;;;;;;;;5074244;28;20044;-79
2022/01/11 05:52:27;;;;;;;73.15;19.75;;;;;;;;;;5057383;28;20095;-78
2022/01/11 05:54:53;;;;;;;115.72;22.50;;;;;;;;;;5057377;28;20113;-79
2022/01/11 05:57:19;;;;;;;114.25;22.08;;;;;;;;;;5074340;28;20037;-78
2022/01/11 05:59:45;;;;;;;61.15;19.80;;;;;;;;;;5074228;28;20047;-79
2022/01/11 06:02:11;;;;;;;67.55;21.02;;;;;;;;;;5074020;28;20092;-78
2022/01/11 06:04:37;;;;;;;55.38;19.58;;;;;;;;;;5057041;28;20051;-78
2022/01/11 06:07:03;;;;;;;63.40;21.30;;;;;;;;;;5057406;28;20041;-79
2022/01/11 06:09:29;;;;;;;52.05;16.17;;;;;;;;;;5057273;28;20059;-79
2022/01/11 06:11:56;;;;;;;62.92;20.13;;;;;;;;;;5073824;28;20047;-79
2022/01/11 06:14:22;;;;;;;54.38;19.73;;;;;;;;;;5056840;28;20084;-77
2022/01/11 06:16:48;;;;;;;69.22;22.55;;;;;;;;;;5073635;28;20521;-78
2022/01/11 06:19:14;;;;;;;64.40;21.17;;;;;;;;;;5073881;28;20040;-78
2022/01/11 06:21:40;;;;;;;62.42;20.58;;;;;;;;;;5057030;28;20155;-78
2022/01/11 06:24:07;;;;;;;56.08;18.02;;;;;;;;;;5056662;28;20135;-78
2022/01/11 06:26:33;;;;;;;71.57;22.52;;;;;;;;;;5056935;28;20041;-78
2022/01/11 06:29:01;;;;;;;77.20;20.00;;;;;;;;;;5073428;28;20071;-79
2022/01/11 06:31:27;;;;;;;57.13;19.40;;;;;;;;;;5073393;28;20456;-78
2022/01/11 06:33:53;;;;;;;63.05;21.13;;;;;;;;;;5073533;28;20149;-79
2022/01/11 06:36:19;;;;;;;62.45;18.45;;;;;;;;;;5056627;28;20044;-79
2022/01/11 06:38:45;;;;;;;84.15;22.77;;;;;;;;;;5056854;28;20044;-79
2022/01/11 06:41:12;;;;;;;61.10;21.73;;;;;;;;;;5073012;28;20048;-78
2022/01/11 06:43:39;;;;;;;69.55;20.42;;;;;;;;;;5056183;28;20071;-78
2022/01/11 06:46:05;;;;;;;60.35;20.10;;;;;;;;;;5073369;28;20076;-79
2022/01/11 06:48:31;;;;;;;60.47;21.77;;;;;;;;;;5073556;28;20131;-79
2022/01/11 06:50:57;;;;;;;69.18;22.67;;;;;;;;;;5074050;28;20033;-79
2022/01/11 06:53:23;;;;;;;53.28;20.83;;;;;;;;;;5057018;28;20492;-78
2022/01/11 06:55:50;;;;;;;55.95;18.60;;;;;;;;;;5073499;28;20132;-78
2022/01/11 06:58:17;;;;;;;64.95;22.48;;;;;;;;;;5072723;28;20089;-78
2022/01/11 07:00:43;;;;;;;52.97;18.95;;;;;;;;;;5056321;28;20129;-78
2022/01/11 07:03:09;;;;;;;66.88;22.77;;;;;;;;;;5072896;28;20047;-78
2022/01/11 07:05:35;;;;;;;62.65;21.85;;;;;;;;;;5056263;28;20040;-79
2022/01/11 07:08:01;;;;;;;57.17;19.98;;;;;;;;;;5055867;28;20145;-79
2022/01/11 07:10:27;;;;;;;56.17;21.95;;;;;;;;;;5072589;28;20037;-79
2022/01/11 07:12:55;;;;;;;51.03;19.98;;;;;;;;;;5072649;28;20499;-79
2022/01/11 07:15:21;;;;;;;54.08;20.15;;;;;;;;;;5055918;28;20048;-79
2022/01/11 07:17:48;;;;;;;68.82;22.25;;;;;;;;;;5056137;28;20036;-79
2022/01/11 07:20:14;;;;;;;60.60;22.40;;;;;;;;;;5072842;28;20044;-80
2022/01/11 07:22:40;;;;;;;55.95;19.10;;;;;;;;;;5072418;28;20077;-79
2022/01/11 07:25:06;;;;;;;64.95;21.30;;;;;;;;;;5055684;28;20119;-78
2022/01/11 07:27:33;;;;;;;54.17;19.90;;;;;;;;;;5072532;28;20039;-78
2022/01/11 07:30:00;;;;;;;52.80;20.80;;;;;;;;;;5056146;28;20548;-79
2022/01/11 07:32:26;;;;;;;57.72;21.75;;;;;;;;;;5072899;28;20439;-78
2022/01/11 07:34:52;;;;;;;50.88;19.40;;;;;;;;;;5055527;28;20044;-78
2022/01/11 07:37:18;;;;;;;56.28;20.42;;;;;;;;;;5055711;28;20044;-79
2022/01/11 07:39:44;;;;;;;58.25;20.80;;;;;;;;;;5055568;28;20036;-78
2022/01/11 07:42:10;;;;;;;61.58;21.30;;;;;;;;;;5055499;28;20048;-78
2022/01/11 07:44:36;;;;;;;64.45;21.52;;;;;;;;;;5055007;28;20076;-79
2022/01/11 07:47:04;;;;;;;53.83;21.00;;;;;;;;;;5071643;28;20075;-79
2022/01/11 07:49:30;;;;;;;59.25;21.30;;;;;;;;;;5072178;28;20052;-79
2022/01/11 07:51:56;;;;;;;62.13;21.50;;;;;;;;;;5055290;28;20484;-78
2022/01/11 07:54:23;;;;;;;58.92;20.15;;;;;;;;;;5055045;28;20044;-79
2022/01/11 07:56:49;;;;;;;71.72;24.10;;;;;;;;;;5071892;28;20067;-78
2022/01/11 07:59:15;;;;;;;65.18;22.15;;;;;;;;;;5055072;28;20045;-79
2022/01/11 08:01:41;;;;;;;64.35;23.65;;;;;;;;;;5057991;28;20043;-79
2022/01/11 08:04:07;;;;;;;69.35;24.10;;;;;;;;;;5063475;28;20047;-79
2022/01/11 08:06:33;;;;;;;59.75;23.15;;;;;;;;;;5079822;28;20480;-78
2022/01/11 08:09:00;;;;;;;69.55;22.70;;;;;;;;;;5081225;28;20040;-79
2022/01/11 08:11:26;;;;;;;62.40;23.35;;;;;;;;;;5079424;28;20394;-79
2022/01/11 08:13:52;;;;;;;64.22;22.13;;;;;;;;;;5079417;28;20056;-78
2022/01/11 08:16:18;;;;;;;66.00;23.40;;;;;;;;;;5080874;28;20525;-79
2022/01/11 08:18:44;;;;;;;45.30;16.23;;;;;;;;;;5079692;28;20079;-78
2022/01/11 08:21:10;;;;;;;56.00;20.67;;;;;;;;;;5080075;28;20043;-78
2022/01/11 08:23:36;;;;;;;60.92;22.33;;;;;;;;;;5081834;28;20040;-78
2022/01/11 08:26:02;;;;;;;57.78;20.27;;;;;;;;;;5076557;28;20036;-76
2022/01/11 08:28:29;;;;;;;62.20;21.92;;;;;;;;;;5066576;28;20073;-78
2022/01/11 08:30:57;;;;;;;62.17;22.20;;;;;;;;;;5077769;28;20462;-78
2022/01/11 08:33:23;;;;;;;48.33;17.55;;;;;;;;;;5075084;28;20049;-77
2022/01/11 08:35:49;;;;;;;48.08;18.20;;;;;;;;;;5078252;28;20044;-78
2022/01/11 08:38:15;;;;;;;55.38;21.42;;;;;;;;;;5076561;28;20052;-78
2022/01/11 08:40:41;;;;;;;37.63;16.45;;;;;;;;;;5060560;28;20072;-78
2022/01/11 08:43:07;;;;;;;47.40;18.42;;;;;;;;;;5074332;28;20448;-77
2022/01/11 08:45:34;;;;;;;50.90;18.70;;;;;;;;;;5058491;28;20044;-77
2022/01/11 08:48:00;;;;;;;42.50;17.45;;;;;;;;;;5076366;28;20047;-78
2022/01/11 08:50:26;;;;;;;35.85;14.68;;;;;;;;;;5076120;28;20045;-78
2022/01/11 08:52:52;;;;;;;39.85;17.33;;;;;;;;;;5075092;28;20070;-77
2022/01/11 08:55:18;;;;;;;42.17;17.23;;;;;;;;;;5076849;28;20086;-78
2022/01/11 08:57:45;;;;;;;39.10;15.23;;;;;;;;;;5075879;28;20100;-77
2022/01/11 09:00:17;;;;;;;43.30;18.45;;;;;;;;;;5075040;28;20462;-77
2022/01/11 09:02:44;;;;;;;42.75;17.45;;;;;;;;;;5098374;28;20072;-78
2022/01/11 09:05:10;;;;;;;38.72;16.02;;;;;;;;;;5088861;28;20488;-78
2022/01/11 09:07:36;;;;;;;41.25;16.67;;;;;;;;;;5081380;28;20086;-77
2022/01/11 09:10:03;;;;;;;34.25;15.18;;;;;;;;;;5084632;28;20447;-78
2022/01/11 09:12:29;;;;;;;31.13;14.43;;;;;;;;;;5077640;28;20140;-77
2022/01/11 09:14:55;;;;;;;35.90;15.00;;;;;;;;;;5081118;28;20123;-77
2022/01/11 09:17:21;;;;;;;30.33;15.30;;;;;;;;;;5078588;28;20047;-79
2022/01/11 09:19:47;;;;;;;40.20;14.77;;;;;;;;;;5077298;28;20047;-78
2022/01/11 09:22:13;;;;;;;32.95;12.05;;;;;;;;;;5079237;28;20098;-78
2022/01/11 09:24:39;;;;;;;32.20;13.48;;;;;;;;;;5079750;28;20067;-77
2022/01/11 09:27:06;;;;;;;34.85;13.63;;;;;;;;;;5079389;28;20059;-76
2022/01/11 09:29:33;;;;;;;26.58;12.70;;;;;;;;;;5094612;28;20047;-77
2022/01/11 09:32:00;;;;;;;30.83;12.55;;;;;;;;;;5079606;28;20036;-78
2022/01/11 09:34:26;;;;;;;32.38;12.95;;;;;;;;;;5079695;28;20079;-76
2022/01/11 09:36:53;;;;;;;30.08;13.60;;;;;;;;;;5077469;28;20184;-77
2022/01/11 09:39:19;;;;;;;23.25;11.35;;;;;;;;;;5077180;28;20555;-78
2022/01/11 09:41:45;;;;;;;39.10;14.88;;;;;;;;;;5069122;28;20048;-77
2022/01/11 09:44:11;;;;;;;31.20;13.27;;;;;;;;;;5069293;28;20048;-77
2022/01/11 09:46:37;;;;;;;38.40;14.75;;;;;;;;;;5068915;28;20396;-77
2022/01/11 09:49:04;;;;;;;28.15;13.57;;;;;;;;;;5069280;28;20043;-75
2022/01/11 09:51:34;;;;;;;31.02;12.70;;;;;;;;;;5069306;28;20123;-76
2022/01/11 09:54:00;;;;;;;27.35;11.70;;;;;;;;;;5069336;28;20036;-77
2022/01/11 09:56:27;;;;;;;29.17;13.60;;;;;;;;;;5069017;28;20036;-76
2022/01/11 09:58:53;;;;;;;22.33;11.32;;;;;;;;;;5069287;28;20128;-76
2022/01/11 10:01:19;;;;;;;29.80;11.77;;;;;;;;;;5068990;28;20041;-77
2022/01/11 10:03:59;;;;;;;35.95;13.85;;;;;;;;;;5069145;28;20048;-76
2022/01/11 10:06:26;;;;;;;27.33;11.30;;;;;;;;;;5069061;28;20043;-76
2022/01/11 10:09:06;;;;;;;31.80;12.85;;;;;;;;;;5069195;28;20040;-76
2022/01/11 10:11:33;;;;;;;33.05;12.35;;;;;;;;;;5068929;28;20041;-76
2022/01/11 10:13:59;;;;;;;34.15;13.60;;;;;;;;;;5068611;28;20053;-77
2022/01/11 10:16:27;;;;;;;38.92;13.20;;;;;;;;;;5068801;28;20048;-77
2022/01/11 10:18:54;;;;;;;27.67;11.18;;;;;;;;;;5069287;28;20044;-76
2022/01/11 10:21:39;;;;;;;32.40;12.82;;;;;;;;;;5068776;28;20040;-76
2022/01/11 10:24:23;;;;;;;23.17;11.55;;;;;;;;;;5068758;28;20072;-77
2022/01/11 10:26:50;;;;;;;22.90;9.98;;;;;;;;;;5068191;28;20127;-76
2022/01/11 10:29:28;;;;;;;26.50;10.77;;;;;;;;;;5068871;28;20055;-76
2022/01/11 10:31:54;;;;;;;22.65;10.25;;;;;;;;;;5068676;28;20040;-75
2022/01/11 10:34:28;;;;;;;22.67;10.65;;;;;;;;;;5071171;28;20067;-76
2022/01/11 10:36:54;;;;;;;28.73;12.05;;;;;;;;;;5072537;28;20044;-77
2022/01/11 10:39:24;;;;;;;23.02;9.85;;;;;;;;;;5072173;28;20036;-77
2022/01/11 10:41:50;;;;;;;26.48;10.23;;;;;;;;;;5072100;28;20561;-77
2022/01/11 10:44:35;;;;;;;25.20;10.43;;;;;;;;;;5072318;28;20040;-77
2022/01/11 10:47:02;;;;;;;28.02;11.85;;;;;;;;;;5072134;28;20369;-77
2022/01/11 10:49:32;;;;;;;23.73;11.00;;;;;;;;;;5072609;28;20396;-78
2022/01/11 10:52:18;;;;;;;28.67;11.07;;;;;;;;;;5072446;28;20044;-78
2022/01/11 10:54:45;;;;;;;21.90;9.75;;;;;;;;;;5072212;28;20377;-78
2022/01/11 10:57:31;;;;;;;23.92;10.48;;;;;;;;;;5071962;28;20086;-77
2022/01/11 11:00:06;;;;;;;27.90;11.68;;;;;;;;;;5072063;28;20051;-76
2022/01/11 11:02:32;;;;;;;22.38;10.43;;;;;;;;;;5072169;28;20132;-77
2022/01/11 11:05:00;;;;;;;25.52;12.07;;;;;;;;;;5071863;28;20497;-77
2022/01/11 11:07:27;;;;;;;22.20;10.65;;;;;;;;;;5071810;28;20408;-77
2022/01/11 11:09:54;;;;;;;22.73;10.20;;;;;;;;;;5072064;28;20032;-76
2022/01/11 11:12:24;;;;;;;18.67;8.90;;;;;;;;;;5072533;28;20434;-76
2022/01/11 11:14:52;;;;;;;17.52;8.30;;;;;;;;;;5071851;28;20045;-78
2022/01/11 11:17:25;;;;;;;26.33;11.25;;;;;;;;;;5071590;28;20036;-78
2022/01/11 11:19:55;;;;;;;31.55;11.50;;;;;;;;;;5071851;28;20056;-78
2022/01/11 11:22:21;;;;;;;25.05;10.18;;;;;;;;;;5072032;28;20079;-79
2022/01/11 11:24:47;;;;;;;24.88;10.43;;;;;;;;;;5071659;28;20082;-78
2022/01/11 11:27:15;;;;;;;24.15;10.85;;;;;;;;;;5071360;28;20044;-77
2022/01/11 11:29:42;;;;;;;29.55;12.50;;;;;;;;;;5071542;28;20043;-76
2022/01/11 11:32:08;;;;;;;25.63;10.45;;;;;;;;;;5071423;28;20492;-79
2022/01/11 11:34:34;;;;;;;19.13;9.27;;;;;;;;;;5071366;28;20051;-78
2022/01/11 11:37:03;;;;;;;19.27;9.63;;;;;;;;;;5071595;28;20443;-79
2022/01/11 11:39:29;;;;;;;21.67;9.77;;;;;;;;;;5071626;28;20047;-78
2022/01/11 11:41:57;;;;;;;20.92;9.50;;;;;;;;;;5070721;28;20048;-78
2022/01/11 11:44:24;;;;;;;23.42;9.02;;;;;;;;;;5070641;28;20072;-78
2022/01/11 11:46:51;;;;;;;22.73;9.82;;;;;;;;;;5070748;28;20040;-79
2022/01/11 11:49:37;;;;;;;15.75;8.43;;;;;;;;;;5071507;28;20040;-79
2022/01/11 11:52:16;;;;;;;18.30;8.80;;;;;;;;;;5070935;28;20136;-78
2022/01/11 11:54:52;;;;;;;22.83;10.23;;;;;;;;;;5071292;28;20041;-79
2022/01/11 11:57:18;;;;;;;24.63;9.90;;;;;;;;;;5070938;28;20044;-78
2022/01/11 11:59:55;;;;;;;22.10;9.30;;;;;;;;;;5071105;28;20048;-77
2022/01/11 12:02:44;;;;;;;18.88;8.52;;;;;;;;;;5073621;28;20491;-79
2022/01/11 12:05:11;;;;;;;22.58;8.63;;;;;;;;;;5061002;28;20101;-79
2022/01/11 12:07:41;;;;;;;19.58;8.52;;;;;;;;;;5073849;28;20050;-79
2022/01/11 12:10:11;;;;;;;20.83;8.38;;;;;;;;;;5073947;28;20044;-80
2022/01/11 12:12:40;;;;;;;20.52;9.18;;;;;;;;;;5090913;28;20089;-77
2022/01/11 12:15:31;;;;;;;21.15;8.82;;;;;;;;;;5090267;28;20385;-79
2022/01/11 12:17:57;;;;;;;;;;;;;;;;;;5074243;28;20051;-78
2022/01/11 12:20:42;;;;;;;23.60;9.23;;;;;;;;;;5090712;28;19919;-79
2022/01/11 12:23:09;;;;;;;20.42;9.43;;;;;;;;;;5073192;28;20040;-79
2022/01/11 12:25:42;;;;;;;17.92;7.40;;;;;;;;;;5073482;28;20040;-79
2022/01/11 12:28:14;;;;;;;19.00;8.05;;;;;;;;;;5090645;28;20036;-78
2022/01/11 12:30:40;;;;;;;21.63;8.77;;;;;;;;;;5090515;28;20385;-78
2022/01/11 12:33:09;;;;;;;18.17;8.13;;;;;;;;;;5090292;28;20051;-78
2022/01/11 12:35:50;;;;;;;16.45;7.60;;;;;;;;;;5090299;28;20123;-80
2022/01/11 12:38:16;;;;;;;17.65;7.55;;;;;;;;;;5073742;28;20123;-76
2022/01/11 12:40:44;;;;;;;18.95;8.32;;;;;;;;;;5073128;28;20578;-78
2022/01/11 12:43:19;;;;;;;14.93;7.90;;;;;;;;;;5090381;28;20123;-79
2022/01/11 12:45:58;;;;;;;17.63;7.07;;;;;;;;;;5073051;28;20051;-78
2022/01/11 12:48:49;;;;;;;16.77;7.55;;;;;;;;;;5089857;28;20400;-80
2022/01/11 12:51:35;;;;;;;16.95;7.70;;;;;;;;;;5061274;28;20052;-79
2022/01/11 12:54:12;;;;;;;19.35;6.97;;;;;;;;;;5089705;28;20478;-81
2022/01/11 12:56:38;;;;;;;16.30;7.18;;;;;;;;;;5089011;28;20484;-80
2022/01/11 12:59:04;;;;;;;17.92;7.10;;;;;;;;;;5057157;28;20178;-77
2022/01/11 13:01:30;;;;;;;19.35;7.95;;;;;;;;;;5071141;28;20037;-78
2022/01/11 13:04:00;;;;;;;20.95;7.90;;;;;;;;;;5069132;28;20512;-78
2022/01/11 13:06:30;;;;;;;15.30;6.82;;;;;;;;;;5074070;28;20051;-78
2022/01/11 13:08:59;;;;;;;18.52;7.45;;;;;;;;;;5085292;28;20088;-77
2022/01/11 13:11:26;;;;;;;18.15;7.28;;;;;;;;;;5079383;28;20040;-77
2022/01/11 13:14:17;;;;;;;18.42;7.00;;;;;;;;;;5071590;28;20056;-80
2022/01/11 13:16:43;;;;;;;17.50;7.47;;;;;;;;;;5070483;28;20577;-78
2022/01/11 13:19:13;;;;;;;16.52;6.85;;;;;;;;;;5069412;28;20400;-78
2022/01/11 13:21:39;;;;;;;19.73;6.80;;;;;;;;;;5070249;28;20037;-78
2022/01/11 13:24:24;;;;;;;15.00;7.53;;;;;;;;;;5069597;28;20051;-78
2022/01/11 13:26:51;;;;;;;14.82;7.78;;;;;;;;;;5069767;28;20047;-78
2022/01/11 13:29:18;;;;;;;15.75;7.85;;;;;;;;;;5072591;28;20027;-80
2022/01/11 13:31:49;;;;;;;18.13;7.15;;;;;;;;;;5089989;28;20032;-78
2022/01/11 13:34:15;;;;;;;16.13;6.60;;;;;;;;;;5072692;28;20081;-78
2022/01/11 13:36:47;;;;;;;21.42;8.00;;;;;;;;;;5083485;28;20040;-80
2022/01/11 13:39:19;;;;;;;14.70;6.53;;;;;;;;;;5085360;28;20040;-78
2022/01/11 13:41:47;;;;;;;13.93;6.65;;;;;;;;;;5074138;28;20445;-78
2022/01/11 13:44:24;;;;;;;17.98;6.95;;;;;;;;;;5083479;28;20105;-78
2022/01/11 13:46:51;;;;;;;20.08;7.30;;;;;;;;;;5071685;28;20124;-78
2022/01/11 13:49:20;;;;;;;20.85;7.85;;;;;;;;;;5070221;28;20040;-78
2022/01/11 13:51:46;;;;;;;16.88;6.30;;;;;;;;;;5070223;28;20502;-78
2022/01/11 13:54:13;;;;;;;19.23;8.07;;;;;;;;;;5069964;28;20135;-80
2022/01/11 13:56:41;;;;;;;20.35;7.05;;;;;;;;;;5073037;28;20044;-78
2022/01/11 13:59:08;;;;;;;23.30;7.93;;;;;;;;;;5076571;28;20086;-79
2022/01/11 14:01:34;;;;;;;23.25;8.00;;;;;;;;;;5078869;28;20483;-78
2022/01/11 14:04:08;;;;;;;23.20;7.78;;;;;;;;;;5069709;28;20037;-78
2022/01/11 14:06:42;;;;;;;19.80;8.43;;;;;;;;;;5069925;28;20037;-79
2022/01/11 14:09:16;;;;;;;21.13;7.45;;;;;;;;;;5071831;28;20036;-79
2022/01/11 14:12:02;;;;;;;20.80;6.97;;;;;;;;;;5073832;28;20080;-79
2022/01/11 14:14:28;;;;;;;17.20;6.10;;;;;;;;;;5073776;28;20598;-79
2022/01/11 14:16:55;;;;;;;17.60;7.07;;;;;;;;;;5073573;28;20068;-78
2022/01/11 14:19:21;;;;;;;18.95;6.80;;;;;;;;;;5073530;28;20049;-80
2022/01/11 14:21:51;;;;;;;16.40;6.93;;;;;;;;;;5073702;28;20052;-79
2022/01/11 14:24:18;;;;;;;13.50;6.30;;;;;;;;;;5073765;28;20127;-78
2022/01/11 14:26:44;;;;;;;16.67;6.50;;;;;;;;;;5074748;28;20035;-80